createdAt,value
2022-12-24T00:01:07.102Z,62.30
2022-12-24T00:03:35.336Z,61.78
2022-12-24T00:06:05.410Z,56.92
2022-12-24T00:08:32.816Z,58.97
2022-12-24T00:11:00.485Z,62.65
2022-12-24T00:13:27.952Z,55.78
2022-12-24T00:15:56.669Z,60.13
2022-12-24T00:18:24.080Z,58.65
2022-12-24T00:20:51.713Z,59.60
2022-12-24T00:23:19.477Z,60.03
2022-12-24T00:25:47.598Z,53.55
2022-12-24T00:28:16.185Z,60.85
2022-12-24T00:30:44.573Z,54.35
2022-12-24T00:33:13.376Z,52.53
2022-12-24T00:35:41.585Z,52.08
2022-12-24T00:38:09.929Z,54.22
2022-12-24T00:40:37.379Z,62.97
2022-12-24T00:43:04.798Z,62.50
2022-12-24T00:45:32.199Z,71.90
2022-12-24T00:47:59.709Z,58.08
2022-12-24T00:50:28.409Z,70.60
2022-12-24T00:52:55.759Z,84.72
2022-12-24T00:55:23.159Z,77.57
2022-12-24T00:57:50.550Z,84.40
2022-12-24T01:00:18.382Z,97.68
2022-12-24T01:02:46.076Z,62.38
2022-12-24T01:05:12.829Z,56.58
2022-12-24T01:07:43.866Z,63.88
2022-12-24T01:10:13.715Z,66.88
2022-12-24T01:12:41.678Z,67.05
2022-12-24T01:15:10.312Z,54.70
2022-12-24T01:17:38.043Z,52.65
2022-12-24T01:20:07.885Z,45.22
2022-12-24T01:22:35.387Z,47.47
2022-12-24T01:25:05.056Z,47.42
2022-12-24T01:27:33.168Z,44.72
2022-12-24T01:32:27.916Z,47.28
2022-12-24T01:34:55.300Z,49.17
2022-12-24T01:37:22.702Z,38.35
2022-12-24T01:39:50.135Z,52.20
2022-12-24T01:42:39.257Z,45.35
2022-12-24T01:45:41.760Z,49.03
2022-12-24T01:48:17.075Z,47.10
2022-12-24T01:50:45.196Z,43.97
2022-12-24T01:55:41.857Z,48.83
2022-12-24T01:58:12.139Z,42.47
2022-12-24T02:00:39.561Z,55.67
2022-12-24T02:03:07.572Z,51.97
2022-12-24T02:05:40.162Z,44.63
2022-12-24T02:08:09.332Z,44.28
2022-12-24T02:10:36.720Z,42.25
2022-12-24T02:13:05.399Z,43.88
2022-12-24T02:15:43.591Z,43.47
2022-12-24T02:18:20.741Z,40.63
2022-12-24T02:21:11.287Z,43.00
2022-12-24T02:24:03.262Z,44.88
2022-12-24T02:26:44.095Z,41.58
2022-12-24T02:29:27.472Z,42.03
2022-12-24T02:32:02.786Z,42.67
2022-12-24T02:34:33.916Z,54.25
2022-12-24T02:37:06.695Z,53.78
2022-12-24T02:39:41.273Z,41.72
2022-12-24T02:42:12.835Z,51.25
2022-12-24T02:44:45.656Z,51.55
2022-12-24T02:47:16.060Z,48.80
2022-12-24T02:49:45.741Z,48.35
2022-12-24T02:52:28.942Z,49.95
2022-12-24T02:54:56.582Z,52.85
2022-12-24T02:57:34.491Z,48.33
2022-12-24T03:02:51.486Z,45.38
2022-12-24T03:07:57.348Z,50.35
2022-12-24T03:10:30.190Z,58.00
2022-12-24T03:13:03.399Z,47.22
2022-12-24T03:15:32.667Z,56.30
2022-12-24T03:18:04.279Z,50.00
2022-12-24T03:20:36.211Z,47.60
2022-12-24T03:23:04.935Z,58.17
2022-12-24T03:25:33.787Z,46.22
2022-12-24T03:28:05.809Z,49.78
2022-12-24T03:30:33.749Z,51.35
2022-12-24T03:33:02.740Z,49.95
2022-12-24T03:35:30.132Z,47.67
2022-12-24T03:37:57.616Z,49.47
2022-12-24T03:40:25.053Z,52.40
2022-12-24T03:42:52.466Z,49.92
2022-12-24T03:45:19.896Z,53.80
2022-12-24T03:47:47.325Z,51.15
2022-12-24T03:50:16.118Z,52.85
2022-12-24T03:52:43.976Z,49.40
2022-12-24T03:55:11.503Z,49.10
2022-12-24T03:57:39.018Z,46.83
2022-12-24T04:00:07.998Z,48.33
2022-12-24T04:02:35.875Z,43.60
2022-12-24T04:05:03.460Z,43.33
2022-12-24T04:07:35.919Z,45.33
2022-12-24T04:10:03.313Z,42.95
2022-12-24T04:12:30.690Z,51.92
2022-12-24T04:14:58.065Z,42.90
2022-12-24T04:17:25.480Z,43.03
2022-12-24T04:19:52.898Z,41.28
2022-12-24T04:22:20.486Z,40.40
2022-12-24T04:24:49.287Z,40.47
2022-12-24T04:27:17.616Z,47.35
2022-12-24T04:29:45.046Z,44.03
2022-12-24T04:32:12.497Z,43.13
2022-12-24T04:34:39.888Z,38.92
2022-12-24T04:37:07.296Z,42.53
2022-12-24T04:39:34.688Z,39.42
2022-12-24T04:42:03.386Z,41.08
2022-12-24T04:44:30.756Z,40.08
2022-12-24T04:46:58.107Z,43.15
2022-12-24T04:49:25.685Z,42.50
2022-12-24T04:51:53.084Z,44.92
2022-12-24T04:54:20.906Z,38.70
2022-12-24T04:56:48.321Z,34.38
2022-12-24T04:59:17.009Z,41.95
2022-12-24T05:01:44.443Z,37.13
2022-12-24T05:04:12.068Z,38.22
2022-12-24T05:06:39.462Z,38.05
2022-12-24T05:09:06.866Z,41.22
2022-12-24T05:11:34.278Z,37.60
2022-12-24T05:14:01.644Z,38.17
2022-12-24T05:16:30.437Z,42.08
2022-12-24T05:18:57.931Z,48.08
2022-12-24T05:21:26.073Z,42.33
2022-12-24T05:24:11.529Z,39.42
2022-12-24T05:26:43.092Z,45.40
2022-12-24T05:29:12.940Z,45.10
2022-12-24T05:31:42.703Z,43.03
2022-12-24T05:34:10.533Z,43.85
2022-12-24T05:36:38.407Z,45.67
2022-12-24T05:39:11.632Z,45.10
2022-12-24T05:41:42.993Z,44.42
2022-12-24T05:44:10.394Z,47.67
2022-12-24T05:46:37.913Z,47.03
2022-12-24T05:49:06.797Z,49.00
2022-12-24T05:51:34.229Z,48.22
2022-12-24T05:54:01.640Z,49.20
2022-12-24T05:56:29.536Z,40.90
2022-12-24T05:58:57.946Z,43.88
2022-12-24T06:01:26.161Z,39.95
2022-12-24T06:03:54.226Z,47.22
2022-12-24T06:08:52.982Z,41.88
2022-12-24T06:11:22.196Z,42.08
2022-12-24T06:13:49.601Z,51.03
2022-12-24T06:16:19.067Z,43.15
2022-12-24T06:18:46.646Z,45.22
2022-12-24T06:21:14.583Z,41.25
2022-12-24T06:23:44.950Z,46.67
2022-12-24T06:26:14.614Z,48.65
2022-12-24T06:28:42.719Z,42.60
2022-12-24T06:33:40.541Z,39.15
2022-12-24T06:36:15.004Z,37.83
2022-12-24T06:38:46.229Z,39.45
2022-12-24T06:41:14.057Z,40.45
2022-12-24T06:43:45.061Z,40.58
2022-12-24T06:46:12.967Z,39.50
2022-12-24T06:48:40.515Z,40.03
2022-12-24T06:51:08.012Z,37.78
2022-12-24T06:53:35.364Z,39.50
2022-12-24T06:56:04.779Z,41.28
2022-12-24T06:58:32.403Z,39.80
2022-12-24T07:01:01.988Z,37.15
2022-12-24T07:03:29.830Z,39.67
2022-12-24T07:05:57.418Z,37.17
2022-12-24T07:08:25.067Z,37.25
2022-12-24T07:10:54.514Z,34.97
2022-12-24T07:13:23.476Z,34.78
2022-12-24T07:15:58.662Z,35.60
2022-12-24T07:18:26.254Z,36.80
2022-12-24T07:20:53.637Z,32.63
2022-12-24T07:23:21.190Z,34.55
2022-12-24T07:25:48.603Z,35.78
2022-12-24T07:28:16.041Z,36.45
2022-12-24T07:30:44.912Z,31.27
2022-12-24T07:33:12.406Z,31.50
2022-12-24T07:35:39.771Z,31.83
2022-12-24T07:38:07.130Z,32.78
2022-12-24T07:40:34.798Z,30.48
2022-12-24T07:43:02.129Z,34.42
2022-12-24T07:45:29.538Z,33.38
2022-12-24T07:47:58.269Z,31.90
2022-12-24T07:50:25.627Z,35.03
2022-12-24T07:52:53.420Z,36.33
2022-12-24T07:55:21.211Z,38.40
2022-12-24T07:57:48.620Z,39.55
2022-12-24T08:00:16.564Z,39.95
2022-12-24T08:02:44.311Z,43.67
2022-12-24T08:07:40.577Z,40.70
2022-12-24T08:10:09.412Z,39.50
2022-12-24T08:12:36.812Z,36.63
2022-12-24T08:15:04.675Z,38.05
2022-12-24T08:17:32.621Z,37.80
2022-12-24T08:22:28.872Z,34.35
2022-12-24T08:24:56.257Z,33.40
2022-12-24T08:27:23.665Z,35.10
2022-12-24T08:29:51.107Z,34.72
2022-12-24T08:32:19.027Z,35.42
2022-12-24T08:37:13.734Z,33.72
2022-12-24T08:39:42.460Z,38.10
2022-12-24T08:42:09.870Z,38.95
2022-12-24T08:44:37.312Z,37.55
2022-12-24T08:47:04.830Z,36.25
2022-12-24T08:49:32.250Z,35.55
2022-12-24T08:51:59.616Z,35.00
2022-12-24T08:54:27.467Z,35.40
2022-12-24T08:56:56.189Z,33.97
2022-12-24T08:59:23.704Z,36.15
2022-12-24T09:01:52.306Z,37.38
2022-12-24T09:04:20.153Z,39.97
2022-12-24T09:06:47.524Z,37.90
2022-12-24T09:09:14.965Z,43.60
2022-12-24T09:11:42.431Z,37.53
2022-12-24T09:14:11.127Z,34.85
2022-12-24T09:16:38.592Z,38.50
2022-12-24T09:19:06.444Z,36.28
2022-12-24T09:21:33.893Z,36.90
2022-12-24T09:24:01.369Z,35.58
2022-12-24T09:26:29.902Z,36.25
2022-12-24T09:28:58.282Z,32.75
2022-12-24T09:31:27.721Z,33.95
2022-12-24T09:33:55.977Z,35.83
2022-12-24T09:36:23.416Z,35.75
2022-12-24T09:38:51.219Z,31.80
2022-12-24T09:41:31.753Z,33.30
2022-12-24T09:44:04.730Z,34.75
2022-12-24T09:46:36.807Z,31.00
2022-12-24T09:49:10.072Z,31.00
2022-12-24T09:51:42.674Z,30.98
2022-12-24T09:54:16.176Z,28.63
2022-12-24T09:56:46.275Z,28.75
2022-12-24T09:59:16.266Z,30.77
2022-12-24T10:01:45.070Z,28.90
2022-12-24T10:04:15.639Z,27.08
2022-12-24T10:06:51.327Z,30.13
2022-12-24T10:09:29.704Z,25.55
2022-12-24T10:12:04.988Z,30.95
2022-12-24T10:14:50.566Z,27.55
2022-12-24T10:17:40.567Z,28.40
2022-12-24T10:20:30.992Z,29.00
2022-12-24T10:23:06.051Z,29.45
2022-12-24T10:25:39.179Z,29.95
2022-12-24T10:28:13.958Z,28.10
2022-12-24T10:30:42.543Z,30.05
2022-12-24T10:33:20.995Z,28.48
2022-12-24T10:35:52.853Z,27.90
2022-12-24T10:38:20.418Z,25.83
2022-12-24T10:40:50.856Z,27.35
2022-12-24T10:43:21.358Z,26.85
2022-12-24T10:45:52.165Z,28.80
2022-12-24T10:48:26.602Z,27.17
2022-12-24T10:51:00.207Z,26.70
2022-12-24T10:53:37.752Z,28.10
2022-12-24T10:56:08.226Z,30.50
2022-12-24T10:58:36.810Z,27.88
2022-12-24T11:01:05.167Z,26.55
2022-12-24T11:03:35.943Z,26.65
2022-12-24T11:06:07.952Z,26.77
2022-12-24T11:08:36.398Z,30.15
2022-12-24T11:11:06.343Z,26.55
2022-12-24T11:13:38.414Z,28.05
2022-12-24T11:16:11.088Z,29.92
2022-12-24T11:18:51.145Z,28.23
2022-12-24T11:21:24.689Z,33.88
2022-12-24T11:23:55.664Z,35.38
2022-12-24T11:26:25.428Z,32.38
2022-12-24T11:29:14.451Z,31.35
2022-12-24T11:31:41.975Z,33.10
2022-12-24T11:34:25.461Z,34.60
2022-12-24T11:36:54.888Z,30.38
2022-12-24T11:39:24.101Z,40.22
2022-12-24T11:41:54.040Z,32.40
2022-12-24T11:44:26.750Z,33.70
2022-12-24T11:46:57.362Z,38.35
2022-12-24T11:49:28.392Z,36.65
2022-12-24T11:52:12.579Z,37.85
2022-12-24T11:54:46.542Z,35.05
2022-12-24T11:57:18.707Z,32.78
2022-12-24T11:59:49.190Z,34.78
2022-12-24T12:02:22.605Z,33.63
2022-12-24T12:04:55.030Z,32.35
2022-12-24T12:07:26.409Z,31.67
2022-12-24T12:09:58.966Z,34.75
2022-12-24T12:12:29.002Z,33.75
2022-12-24T12:15:01.196Z,35.92
2022-12-24T12:17:33.439Z,34.58
2022-12-24T12:20:07.186Z,31.20
2022-12-24T12:22:39.809Z,32.75
2022-12-24T12:25:18.480Z,34.60
2022-12-24T12:27:48.596Z,31.42
2022-12-24T12:30:18.715Z,33.35
2022-12-24T12:32:52.114Z,31.27
2022-12-24T12:35:26.946Z,32.13
2022-12-24T12:37:58.211Z,30.50
2022-12-24T12:40:48.430Z,31.80
2022-12-24T12:43:32.459Z,33.70
2022-12-24T12:46:07.705Z,33.65
2022-12-24T12:49:02.892Z,33.97
2022-12-24T12:51:43.249Z,32.67
2022-12-24T12:54:32.173Z,33.63
2022-12-24T12:57:06.573Z,30.58
2022-12-24T12:59:37.735Z,32.63
2022-12-24T13:02:26.060Z,32.83
2022-12-24T13:05:15.258Z,33.65
2022-12-24T13:08:18.721Z,35.55
2022-12-24T13:11:05.439Z,32.63
2022-12-24T13:13:48.563Z,35.25
2022-12-24T13:16:41.102Z,35.58
2022-12-24T13:19:19.594Z,31.38
2022-12-24T13:21:48.782Z,32.85
2022-12-24T13:24:20.090Z,36.78
2022-12-24T13:27:01.993Z,30.35
2022-12-24T13:29:42.420Z,29.83
2022-12-24T13:32:39.188Z,34.20
2022-12-24T13:35:37.144Z,29.93
2022-12-24T13:38:46.077Z,30.67
2022-12-24T13:41:49.808Z,33.47
2022-12-24T13:44:23.103Z,29.67
2022-12-24T13:46:56.502Z,29.15
2022-12-24T13:49:29.655Z,31.02
2022-12-24T13:52:19.592Z,32.95
2022-12-24T13:54:51.432Z,30.73
2022-12-24T13:57:32.777Z,33.22
2022-12-24T14:00:03.671Z,30.48
2022-12-24T14:02:36.850Z,30.63
2022-12-24T14:05:09.360Z,31.50
2022-12-24T14:07:37.928Z,30.40
2022-12-24T14:10:07.191Z,30.33
2022-12-24T14:12:48.910Z,30.73
2022-12-24T14:15:52.818Z,32.75
2022-12-24T14:18:23.427Z,30.88
2022-12-24T14:20:52.453Z,34.40
2022-12-24T14:23:31.927Z,32.75
2022-12-24T14:26:01.619Z,28.95
2022-12-24T14:28:37.543Z,31.23
2022-12-24T14:31:06.661Z,31.70
2022-12-24T14:33:36.127Z,30.98
2022-12-24T14:36:04.118Z,32.08
2022-12-24T14:38:31.979Z,32.45
2022-12-24T14:41:08.993Z,31.63
2022-12-24T14:43:49.646Z,31.47
2022-12-24T14:46:25.595Z,31.77
2022-12-24T14:48:56.159Z,33.75
2022-12-24T14:51:30.697Z,30.23
2022-12-24T14:54:32.187Z,33.55
2022-12-24T14:57:23.156Z,32.55
2022-12-24T14:59:54.274Z,30.65
2022-12-24T15:02:39.302Z,30.30
2022-12-24T15:05:10.336Z,32.75
2022-12-24T15:07:47.340Z,34.53
2022-12-24T15:10:28.927Z,31.77
2022-12-24T15:12:58.564Z,33.17
2022-12-24T15:15:27.398Z,32.83
2022-12-24T15:17:55.946Z,32.20
2022-12-24T15:20:27.468Z,33.58
2022-12-24T15:22:56.904Z,30.35
2022-12-24T15:25:27.126Z,32.03
2022-12-24T15:27:54.737Z,33.00
2022-12-24T15:30:24.186Z,33.05
2022-12-24T15:32:54.889Z,33.45
2022-12-24T15:35:52.607Z,33.17
2022-12-24T15:40:53.995Z,35.90
2022-12-24T15:43:21.745Z,35.13
2022-12-24T15:45:49.412Z,34.00
2022-12-24T15:48:23.523Z,30.90
2022-12-24T15:50:53.701Z,36.17
2022-12-24T15:53:26.790Z,35.50
2022-12-24T15:56:03.508Z,33.90
2022-12-24T15:58:33.274Z,37.75
2022-12-24T16:01:02.652Z,35.67
2022-12-24T16:03:31.972Z,34.72
2022-12-24T16:06:03.263Z,33.78
2022-12-24T16:08:32.990Z,32.80
2022-12-24T16:11:19.019Z,37.33
2022-12-24T16:14:01.538Z,38.25
2022-12-24T16:16:35.730Z,46.08
2022-12-24T16:19:06.908Z,42.67
2022-12-24T16:21:37.530Z,33.95
2022-12-24T16:24:08.812Z,37.17
2022-12-24T16:26:38.098Z,35.20
2022-12-24T16:29:05.523Z,37.25
2022-12-24T16:31:34.877Z,39.30
2022-12-24T16:34:04.496Z,38.33
2022-12-24T16:36:33.198Z,39.25
2022-12-24T16:39:18.202Z,37.88
2022-12-24T16:42:03.316Z,38.30
2022-12-24T16:44:30.678Z,40.58
2022-12-24T16:47:00.581Z,39.60
2022-12-24T16:49:30.780Z,37.33
2022-12-24T16:51:58.497Z,38.67
2022-12-24T16:54:25.891Z,45.92
2022-12-24T16:56:53.257Z,48.67
2022-12-24T16:59:22.912Z,45.45
2022-12-24T17:01:51.844Z,47.78
2022-12-24T17:04:19.969Z,50.00
2022-12-24T17:09:17.755Z,47.15
2022-12-24T17:11:45.211Z,48.42
2022-12-24T17:14:19.652Z,45.78
2022-12-24T17:16:47.788Z,48.08
2022-12-24T17:19:15.337Z,52.08
2022-12-24T17:21:42.817Z,51.95
2022-12-24T17:24:12.374Z,54.65
2022-12-24T17:26:39.818Z,51.17
2022-12-24T17:29:07.296Z,54.88
2022-12-24T17:31:34.915Z,52.45
2022-12-24T17:34:02.361Z,50.70
2022-12-24T17:36:29.728Z,51.38
2022-12-24T17:38:57.131Z,49.83
2022-12-24T17:41:25.803Z,51.65
2022-12-24T17:43:53.390Z,53.72
2022-12-24T17:46:22.747Z,52.22
2022-12-24T17:48:50.807Z,50.05
2022-12-24T17:51:20.438Z,49.67
2022-12-24T17:53:48.645Z,45.10
2022-12-24T17:56:17.027Z,49.63
2022-12-24T17:58:47.201Z,45.47
2022-12-24T18:01:17.102Z,47.85
2022-12-24T18:03:44.739Z,51.97
2022-12-24T18:06:13.388Z,49.35
2022-12-24T18:08:42.562Z,47.00
2022-12-24T18:11:14.431Z,42.42
2022-12-24T18:13:42.707Z,47.55
2022-12-24T18:16:19.959Z,46.72
2022-12-24T18:18:48.189Z,45.83
2022-12-24T18:21:17.172Z,50.35
2022-12-24T18:23:46.383Z,47.90
2022-12-24T18:26:15.339Z,52.47
2022-12-24T18:28:43.686Z,49.80
2022-12-24T18:31:13.923Z,47.92
2022-12-24T18:33:43.371Z,50.45
2022-12-24T18:36:11.294Z,46.13
2022-12-24T18:38:39.179Z,46.15
2022-12-24T18:41:08.368Z,49.55
2022-12-24T18:43:36.115Z,48.30
2022-12-24T18:46:07.408Z,50.17
2022-12-24T18:48:34.830Z,48.83
2022-12-24T18:51:03.612Z,50.83
2022-12-24T18:53:31.067Z,51.00
2022-12-24T18:56:03.821Z,52.55
2022-12-24T18:58:31.228Z,48.72
2022-12-24T19:00:58.647Z,45.15
2022-12-24T19:03:26.394Z,46.35
2022-12-24T19:05:53.769Z,47.08
2022-12-24T19:08:46.988Z,45.00
2022-12-24T19:11:10.001Z,45.10
2022-12-24T19:13:37.415Z,50.17
2022-12-24T19:16:05.924Z,42.92
2022-12-24T19:18:33.676Z,43.08
2022-12-24T19:21:06.104Z,44.53
2022-12-24T19:23:35.106Z,49.35
2022-12-24T19:26:02.806Z,56.45
2022-12-24T19:28:30.730Z,59.80
2022-12-24T19:31:03.488Z,63.42
2022-12-24T19:33:31.125Z,51.75
2022-12-24T19:35:58.722Z,44.50
2022-12-24T19:38:26.105Z,59.08
2022-12-24T19:40:54.799Z,70.80
2022-12-24T19:43:22.192Z,48.72
2022-12-24T19:45:49.744Z,49.03
2022-12-24T19:48:17.323Z,999.90
2022-12-24T19:50:44.679Z,999.90
2022-12-24T19:53:12.058Z,999.90
2022-12-24T19:55:45.622Z,49.92
2022-12-24T19:58:14.473Z,56.30
2022-12-24T20:00:41.860Z,55.88
2022-12-24T20:03:09.381Z,57.85
2022-12-24T20:05:40.953Z,58.70
2022-12-24T20:08:08.591Z,56.45
2022-12-24T20:10:39.528Z,58.95
2022-12-24T20:13:06.964Z,55.55
2022-12-24T20:15:40.597Z,56.38
2022-12-24T20:18:08.463Z,51.45
2022-12-24T20:20:36.059Z,49.22
2022-12-24T20:23:04.360Z,48.95
2022-12-24T20:25:34.224Z,44.58
2022-12-24T20:28:01.604Z,46.63
2022-12-24T20:30:29.021Z,48.53
2022-12-24T20:32:58.395Z,44.17
2022-12-24T20:35:25.836Z,45.33
2022-12-24T20:37:53.327Z,43.05
2022-12-24T20:40:20.719Z,41.10
2022-12-24T20:42:48.073Z,41.70
2022-12-24T20:45:16.319Z,42.65
2022-12-24T20:47:43.695Z,42.85
2022-12-24T20:50:12.815Z,41.75
2022-12-24T20:52:40.489Z,44.53
2022-12-24T20:55:08.234Z,44.45
2022-12-24T20:57:36.923Z,44.13
2022-12-24T21:00:05.476Z,42.13
2022-12-24T21:02:33.000Z,41.78
2022-12-24T21:05:02.538Z,44.72
2022-12-24T21:07:31.610Z,48.20
2022-12-24T21:09:58.974Z,47.67
2022-12-24T21:12:44.165Z,45.75
2022-12-24T21:15:11.693Z,45.10
2022-12-24T21:17:39.068Z,44.80
2022-12-24T21:20:07.669Z,42.40
2022-12-24T21:22:36.363Z,44.83
2022-12-24T21:25:03.737Z,46.47
2022-12-24T21:27:31.881Z,45.67
2022-12-24T21:29:59.985Z,44.42
2022-12-24T21:34:54.667Z,49.10
2022-12-24T21:37:22.050Z,42.60
2022-12-24T21:39:51.230Z,51.13
2022-12-24T21:42:18.750Z,55.33
2022-12-24T21:44:46.155Z,46.60
2022-12-24T21:47:13.833Z,45.20
2022-12-24T21:49:58.826Z,42.55
2022-12-24T21:52:26.197Z,44.53
2022-12-24T21:54:53.954Z,45.17
2022-12-24T21:57:38.710Z,43.30
2022-12-24T22:00:22.914Z,46.08
2022-12-24T22:02:51.614Z,47.38
2022-12-24T22:05:19.942Z,50.10
2022-12-24T22:10:51.481Z,761.47
2022-12-24T22:13:19.866Z,45.53
2022-12-24T22:15:49.009Z,43.55
2022-12-24T22:18:18.066Z,43.50
2022-12-24T22:20:46.643Z,47.28
2022-12-24T22:23:14.677Z,45.22
2022-12-24T22:28:12.738Z,42.13
2022-12-24T22:30:41.210Z,44.95
2022-12-24T22:33:09.395Z,999.90
2022-12-24T22:38:05.249Z,999.90
2022-12-24T22:40:32.630Z,999.90
2022-12-24T22:43:01.374Z,999.90
2022-12-24T22:45:28.757Z,999.90
2022-12-24T22:47:56.189Z,999.90
2022-12-24T22:50:23.808Z,999.90
2022-12-24T22:52:52.523Z,999.90
2022-12-24T22:55:20.065Z,999.90
2022-12-24T22:57:47.608Z,999.90
2022-12-24T23:00:39.290Z,999.90
2022-12-24T23:03:08.005Z,999.90
2022-12-24T23:05:35.672Z,999.90
2022-12-24T23:08:03.138Z,999.90
2022-12-24T23:10:30.543Z,999.90
2022-12-24T23:13:17.303Z,999.90
2022-12-24T23:15:46.098Z,999.90
2022-12-24T23:18:13.800Z,999.90
2022-12-24T23:20:43.161Z,999.90
2022-12-24T23:23:10.577Z,999.90
2022-12-24T23:25:38.284Z,999.90
2022-12-24T23:28:06.031Z,999.90
2022-12-24T23:30:33.697Z,999.90
2022-12-24T23:33:02.549Z,999.90
2022-12-24T23:35:29.938Z,999.90
2022-12-24T23:37:57.381Z,999.90
2022-12-24T23:40:25.679Z,999.90
2022-12-24T23:42:53.076Z,999.90
2022-12-24T23:45:20.474Z,999.90
2022-12-24T23:47:47.878Z,999.90
2022-12-24T23:50:16.561Z,999.90
2022-12-24T23:52:43.942Z,999.90
2022-12-24T23:55:11.320Z,999.90
2022-12-24T23:57:38.704Z,999.90
